Howland, Ohio
Current Conditions -  °F | °C
As of 6:51 PM on Friday 21 Nov 2014 (Local Time) from KYNG Reporting Station
Clear Clear  
Wind Chill: 13°   Ceiling: Unl
Heat Index: 20°   Visibility: 10mi
Dew Point:   Wind: 5mph
Humidity: 62%   Direction: 180°S
Pressure: 30.45"   Gusts: NA
Location:  41.234°N, 80.7496°W
Report Text: KYNG 212351Z 18004KT 10SM CLR M07/M13 A3045 RMK AO2 SLP332 4/003 60000 T10671128 11039 21067 58002
Loading
Personal Weather Stations






























Interactive Weather Map New forecast layout! Learn more

10-Day Weather Forecast

Advertisements
Track Severe Weather on mobile